EFOUEFKE

Guest
Details From EFOU - Oulu
To EFKE - Kemi Tornio
Flight Number -
Tags generated
Created
Modified
Stats Distance 55 nm / 101 km
Max Altitude 5,300 ft / 1,615 m
Waypoints 3
Social Downloads 0
Likes 0
Share VATSIM

Download

Looking for another format? Having issues loading an existing format? Contact us
Advertisement - Login to hide

Notes

Basic altitude profile: - Ascent Rate: 2500ft/min - Ascent Speed: 250kts - Cruise Altitude: 35000ft - Cruise Speed: 420kts - Descent Rate: 1500ft/min - Descent Speed: 250kts Options: - Use NATs: yes - Use PACOTS: yes - Use low airways: yes - Use high airways: yes

Route

EFOU ATNIS EFKE

ID Type Via Altitude Latitude Longitude Leg Dist Tot Dist Heading (true) Name
O EFOU APT - 0 ft / 0 m 64.93006˚ 25.35456˚ - 0 nm - Oulu
ATNIS FIX - 5,300 ft / 1,615 m 65.39639˚ 24.98194˚ 29 nm 29 nm 342° / 341° -
O EFKE APT - 0 ft / 0 m 65.78189˚ 24.58244˚ 25 nm 54 nm 337° / 337° Kemi Tornio

Altitude Profile

Advertisement - Login to hide

EFOU

Details ICAO EFOU (OUL)
Name Oulu
Region Finland
Timezone Europe/Helsinki (UTC+2.0)
Stats Elevation 47 ft / 14 m (AMSL)
Location 64.930059° 25.354560°
Runways 1
Magnetic Variation 10.663° E

METAR

EFOU 171150Z AUTO 20006KT 9999 -FZUP FEW010 SCT013 OVC015 M03/M04 Q1003

Decode

TAF

TAF AMD TAF AMD EFOU 171157Z 1712/1812 20005KT 9999 OVC015 TEMPO 1712/1806 BKN005 PROB30 1712/1718 -FZDZ TEMPO 1806/1812 BKN010

Decode

Departure Runways

ID Width Length Bearing (true) Bearing (mag) Surface Threshold Offset Overrun Length
12 197 ft / 60 m 8,180 ft / 2,493 m 121.01° 110.35° Asphalt 0 ft / 0 m 200 ft / 61 m
30 197 ft / 60 m 8,180 ft / 2,493 m 301.05° 290.39° Asphalt 0 ft / 0 m 200 ft / 61 m

EFKE

Details ICAO EFKE (KEM)
Name Kemi Tornio
Region Finland
Timezone Europe/Helsinki (UTC+2.0)
Stats Elevation 61 ft / 19 m (AMSL)
Location 65.781889° 24.582436°
Runways 1
Magnetic Variation 10.599° E

METAR

EFKE 171150Z AUTO 26006KT 9000 OVC003 M06/M07 Q1002

Decode

TAF

Not found

Destination Runways

ID Width Length Bearing (true) Bearing (mag) Surface Threshold Offset Overrun Length
18 157 ft / 48 m 8,192 ft / 2,497 m 187.51° 176.91° Asphalt 0 ft / 0 m 95 ft / 29 m
36 157 ft / 48 m 8,192 ft / 2,497 m 7.50° 356.90° Asphalt 0 ft / 0 m 190 ft / 58 m

Approach Navaids

Runway Type Ident Frequency Range Bearing (true) Bearing (mag) Slope Elevation
18 Localiser KE 110.90 MHz 18 nm / 33 km 187.51° 176.91° - 61 ft / 19 m (AMSL)
18 Glidescope KE 110.90 MHz 10 nm / 19 km 187.51° 176.91° 3.50° 61 ft / 19 m (AMSL)
18 DME KE 110.90 MHz 18 nm / 33 km - - - 92 ft / 28 m (AMSL)